createdAt,value
2022-11-17T00:00:18.485Z,12.96
2022-11-17T00:01:22.031Z,12.93
2022-11-17T00:02:23.616Z,12.92
2022-11-17T00:03:27.923Z,12.93
2022-11-17T00:04:29.536Z,12.91
2022-11-17T00:05:31.059Z,12.89
2022-11-17T00:06:32.603Z,12.86
2022-11-17T00:07:34.267Z,12.86
2022-11-17T00:08:35.950Z,12.87
2022-11-17T00:09:37.505Z,12.87
2022-11-17T00:10:39.048Z,12.87
2022-11-17T00:11:59.168Z,12.86
2022-11-17T00:13:18.925Z,12.84
2022-11-17T00:14:36.845Z,12.86
2022-11-17T00:15:42.838Z,12.86
2022-11-17T00:16:49.682Z,12.89
2022-11-17T00:18:11.500Z,12.90
2022-11-17T00:19:31.212Z,12.91
2022-11-17T00:20:51.056Z,12.94
2022-11-17T00:21:52.896Z,13.04
2022-11-17T00:22:54.414Z,13.04
2022-11-17T00:23:56.728Z,13.05
2022-11-17T00:24:58.543Z,13.05
2022-11-17T00:26:00.099Z,13.03
2022-11-17T00:27:01.694Z,13.12
2022-11-17T00:28:03.218Z,13.17
2022-11-17T00:29:05.644Z,13.21
2022-11-17T00:30:07.850Z,13.28
2022-11-17T00:31:32.571Z,13.32
2022-11-17T00:32:52.743Z,13.29
2022-11-17T00:34:05.992Z,13.35
2022-11-17T00:35:08.218Z,13.33
2022-11-17T00:36:09.811Z,13.32
2022-11-17T00:37:13.054Z,13.26
2022-11-17T00:38:17.458Z,13.24
2022-11-17T00:39:20.973Z,13.24
2022-11-17T00:40:22.458Z,13.34
2022-11-17T00:41:23.971Z,13.41
2022-11-17T00:42:25.539Z,13.35
2022-11-17T00:43:27.027Z,13.30
2022-11-17T00:44:29.556Z,13.26
2022-11-17T00:45:31.083Z,13.24
2022-11-17T00:46:33.505Z,13.18
2022-11-17T00:47:36.261Z,13.12
2022-11-17T00:48:37.796Z,13.21
2022-11-17T00:49:39.319Z,13.24
2022-11-17T00:50:40.831Z,13.25
2022-11-17T00:51:42.470Z,13.18
2022-11-17T00:52:43.998Z,13.13
2022-11-17T00:53:46.342Z,13.19
2022-11-17T00:54:47.871Z,13.24
2022-11-17T00:55:49.449Z,13.29
2022-11-17T00:56:51.376Z,13.35
2022-11-17T00:57:53.110Z,13.39
2022-11-17T00:58:54.932Z,13.42
2022-11-17T00:59:56.437Z,13.40
2022-11-17T01:00:58.046Z,13.39
2022-11-17T01:01:59.631Z,13.39
2022-11-17T01:03:01.188Z,13.41
2022-11-17T01:04:03.833Z,13.48
2022-11-17T01:05:06.013Z,13.47
2022-11-17T01:06:16.764Z,13.39
2022-11-17T01:07:18.358Z,13.26
2022-11-17T01:08:19.968Z,13.18
2022-11-17T01:09:23.563Z,13.17
2022-11-17T01:10:25.114Z,13.16
2022-11-17T01:11:27.581Z,13.09
2022-11-17T01:12:29.121Z,13.06
2022-11-17T01:13:30.666Z,12.99
2022-11-17T01:14:32.736Z,12.96
2022-11-17T01:15:34.324Z,12.92
2022-11-17T01:16:35.863Z,12.89
2022-11-17T01:17:37.411Z,12.87
2022-11-17T01:18:39.965Z,12.88
2022-11-17T01:19:41.632Z,12.87
2022-11-17T01:20:43.134Z,12.87
2022-11-17T01:21:45.046Z,12.86
2022-11-17T01:22:46.584Z,12.88
2022-11-17T01:23:50.092Z,12.90
2022-11-17T01:24:51.688Z,12.92
2022-11-17T01:25:53.178Z,12.90
2022-11-17T01:26:54.683Z,12.89
2022-11-17T01:27:56.204Z,12.88
2022-11-17T01:28:59.643Z,12.91
2022-11-17T01:30:01.166Z,12.92
2022-11-17T01:31:08.243Z,12.93
2022-11-17T01:32:09.726Z,12.94
2022-11-17T01:33:11.243Z,12.92
2022-11-17T01:34:13.025Z,12.92
2022-11-17T01:35:14.655Z,12.92
2022-11-17T01:36:24.876Z,12.94
2022-11-17T01:37:26.975Z,12.95
2022-11-17T01:38:28.885Z,12.96
2022-11-17T01:39:31.539Z,12.97
2022-11-17T01:40:33.047Z,12.97
2022-11-17T01:41:34.591Z,12.97
2022-11-17T01:42:36.106Z,12.96
2022-11-17T01:43:49.360Z,12.98
2022-11-17T01:45:02.507Z,12.98
2022-11-17T01:46:05.091Z,12.96
2022-11-17T01:47:16.390Z,12.99
2022-11-17T01:48:17.928Z,13.00
2022-11-17T01:49:24.791Z,13.01
2022-11-17T01:50:43.452Z,13.02
2022-11-17T01:51:56.204Z,12.99
2022-11-17T01:53:01.141Z,13.00
2022-11-17T01:54:03.045Z,12.98
2022-11-17T01:55:07.509Z,13.00
2022-11-17T01:56:14.776Z,12.99
2022-11-17T01:57:25.388Z,13.01
2022-11-17T01:58:37.751Z,13.00
2022-11-17T01:59:43.389Z,13.00
2022-11-17T02:00:44.967Z,13.03
2022-11-17T02:01:57.660Z,13.04
2022-11-17T02:02:59.860Z,13.03
2022-11-17T02:04:01.684Z,13.03
2022-11-17T02:05:06.107Z,13.01
2022-11-17T02:06:11.757Z,13.05
2022-11-17T02:07:28.364Z,13.08
2022-11-17T02:08:33.645Z,13.08
2022-11-17T02:09:39.586Z,13.07
2022-11-17T02:10:45.843Z,13.06
2022-11-17T02:11:50.947Z,13.07
2022-11-17T02:12:54.509Z,13.08
2022-11-17T02:13:56.512Z,13.07
2022-11-17T02:14:58.118Z,13.06
2022-11-17T02:15:59.631Z,13.06
2022-11-17T02:17:10.127Z,13.06
2022-11-17T02:18:17.291Z,13.01
2022-11-17T02:19:22.240Z,13.02
2022-11-17T02:20:42.067Z,12.99
2022-11-17T02:21:58.258Z,12.99
2022-11-17T02:23:03.143Z,12.99
2022-11-17T02:24:31.266Z,12.99
2022-11-17T02:25:48.792Z,13.00
2022-11-17T02:27:27.521Z,12.99
2022-11-17T02:28:30.553Z,12.98
2022-11-17T02:29:44.841Z,12.97
2022-11-17T02:30:57.095Z,12.96
2022-11-17T02:32:04.244Z,12.94
2022-11-17T02:33:17.525Z,12.94
2022-11-17T02:34:33.987Z,12.95
2022-11-17T02:35:41.785Z,12.94
2022-11-17T02:37:08.397Z,12.96
2022-11-17T02:38:12.967Z,12.94
2022-11-17T02:39:30.984Z,12.95
2022-11-17T02:40:43.911Z,12.99
2022-11-17T02:42:11.267Z,13.01
2022-11-17T02:43:45.837Z,12.99
2022-11-17T02:45:02.870Z,12.99
2022-11-17T02:46:11.785Z,12.97
2022-11-17T02:47:27.449Z,12.97
2022-11-17T02:48:35.195Z,12.99
2022-11-17T02:49:41.252Z,12.99
2022-11-17T02:50:46.731Z,12.98
2022-11-17T02:51:57.836Z,12.96
2022-11-17T02:52:59.393Z,12.95
2022-11-17T02:54:02.232Z,12.95
2022-11-17T02:55:09.500Z,12.94
2022-11-17T02:56:11.084Z,12.97
2022-11-17T02:57:29.036Z,12.97
2022-11-17T02:58:30.871Z,12.94
2022-11-17T02:59:42.678Z,12.96
2022-11-17T03:01:21.006Z,12.97
2022-11-17T03:02:30.065Z,12.98
2022-11-17T03:03:54.374Z,12.98
2022-11-17T03:05:21.498Z,13.00
2022-11-17T03:06:44.059Z,12.95
2022-11-17T03:08:07.495Z,12.96
2022-11-17T03:09:12.093Z,12.98
2022-11-17T03:10:49.884Z,13.00
2022-11-17T03:12:02.292Z,12.98
2022-11-17T03:13:13.160Z,12.95
2022-11-17T03:14:36.627Z,12.97
2022-11-17T03:15:50.097Z,13.00
2022-11-17T03:17:00.467Z,13.02
2022-11-17T03:18:21.411Z,13.02
2022-11-17T03:20:03.801Z,13.02
2022-11-17T03:21:27.715Z,13.01
2022-11-17T03:23:04.438Z,13.03
2022-11-17T03:24:18.748Z,13.03
2022-11-17T03:25:23.417Z,13.05
2022-11-17T03:26:32.445Z,13.04
2022-11-17T03:27:38.576Z,13.05
2022-11-17T03:28:43.796Z,13.06
2022-11-17T03:29:50.705Z,13.07
2022-11-17T03:30:53.573Z,13.08
2022-11-17T03:32:00.240Z,13.07
2022-11-17T03:33:11.574Z,13.05
2022-11-17T03:34:17.073Z,13.05
2022-11-17T03:35:23.968Z,12.98
2022-11-17T03:36:33.615Z,12.98
2022-11-17T03:37:39.724Z,13.00
2022-11-17T03:38:46.822Z,13.07
2022-11-17T03:39:52.914Z,13.07
2022-11-17T03:40:58.026Z,13.15
2022-11-17T03:42:06.570Z,13.16
2022-11-17T03:43:10.111Z,13.14
2022-11-17T03:44:14.857Z,13.15
2022-11-17T03:45:27.993Z,13.20
2022-11-17T03:46:31.028Z,13.21
2022-11-17T03:47:34.759Z,13.16
2022-11-17T03:48:39.893Z,13.16
2022-11-17T03:49:47.928Z,13.17
2022-11-17T03:50:59.194Z,13.16
2022-11-17T03:52:01.289Z,13.15
2022-11-17T03:53:04.994Z,13.11
2022-11-17T03:54:07.294Z,13.09
2022-11-17T03:55:09.572Z,13.10
2022-11-17T03:56:43.462Z,13.11
2022-11-17T03:58:03.567Z,13.12
2022-11-17T03:59:15.396Z,13.11
2022-11-17T04:00:18.834Z,13.12
2022-11-17T04:01:21.504Z,13.17
2022-11-17T04:02:24.920Z,13.19
2022-11-17T04:03:32.112Z,13.20
2022-11-17T04:04:53.691Z,13.18
2022-11-17T04:05:55.276Z,13.21
2022-11-17T04:06:56.918Z,13.22
2022-11-17T04:07:58.499Z,13.20
2022-11-17T04:09:00.034Z,13.20
2022-11-17T04:10:02.114Z,13.20
2022-11-17T04:11:22.314Z,13.23
2022-11-17T04:12:42.145Z,13.22
2022-11-17T04:14:01.981Z,13.20
2022-11-17T04:15:22.407Z,13.19
2022-11-17T04:16:23.994Z,13.19
2022-11-17T04:17:25.510Z,13.17
2022-11-17T04:18:27.263Z,13.18
2022-11-17T04:19:28.852Z,13.21
2022-11-17T04:20:39.655Z,13.20
2022-11-17T04:21:41.293Z,13.21
2022-11-17T04:22:42.838Z,13.20
2022-11-17T04:23:44.414Z,13.18
2022-11-17T04:24:46.024Z,13.17
2022-11-17T04:26:15.612Z,13.18
2022-11-17T04:27:35.482Z,13.16
2022-11-17T04:28:41.132Z,13.17
2022-11-17T04:29:42.669Z,13.17
2022-11-17T04:30:44.287Z,13.15
2022-11-17T04:31:45.993Z,13.15
2022-11-17T04:32:47.525Z,13.15
2022-11-17T04:33:55.124Z,13.16
2022-11-17T04:34:56.688Z,13.17
2022-11-17T04:35:58.330Z,13.17
2022-11-17T04:37:03.887Z,13.19
2022-11-17T04:38:08.563Z,13.21
2022-11-17T04:39:11.676Z,13.24
2022-11-17T04:40:13.420Z,13.19
2022-11-17T04:41:34.943Z,13.15
2022-11-17T04:42:36.450Z,13.17
2022-11-17T04:43:42.718Z,13.13
2022-11-17T04:44:44.247Z,13.15
2022-11-17T04:45:45.811Z,13.16
2022-11-17T04:46:47.431Z,13.11
2022-11-17T04:47:48.950Z,13.08
2022-11-17T04:48:52.493Z,13.08
2022-11-17T04:49:54.026Z,13.12
2022-11-17T04:50:56.247Z,13.13
2022-11-17T04:52:00.733Z,13.16
2022-11-17T04:53:02.222Z,13.18
2022-11-17T04:54:05.346Z,13.18
2022-11-17T04:55:07.212Z,13.21
2022-11-17T04:56:09.358Z,13.24
2022-11-17T04:57:10.946Z,13.24
2022-11-17T04:58:12.614Z,13.24
2022-11-17T04:59:14.411Z,13.18
2022-11-17T05:00:16.612Z,13.12
2022-11-17T05:01:18.931Z,13.10
2022-11-17T05:02:20.450Z,13.04
2022-11-17T05:03:22.499Z,13.06
2022-11-17T05:04:42.772Z,13.02
2022-11-17T05:05:50.296Z,13.04
2022-11-17T05:06:51.813Z,12.99
2022-11-17T05:07:53.392Z,12.93
2022-11-17T05:08:56.645Z,12.71
2022-11-17T05:09:58.167Z,12.65
2022-11-17T05:11:18.274Z,12.62
2022-11-17T05:12:38.476Z,12.66
2022-11-17T05:13:40.048Z,12.71
2022-11-17T05:14:41.575Z,12.64
2022-11-17T05:16:01.900Z,12.57
2022-11-17T05:17:10.975Z,12.46
2022-11-17T05:18:13.090Z,12.39
2022-11-17T05:19:22.643Z,12.36
2022-11-17T05:20:24.157Z,12.34
2022-11-17T05:21:25.699Z,12.42
2022-11-17T05:22:45.759Z,12.39
2022-11-17T05:23:56.485Z,12.44
2022-11-17T05:24:58.468Z,12.41
2022-11-17T05:26:00.146Z,12.31
2022-11-17T05:27:01.673Z,12.24
2022-11-17T05:28:03.199Z,12.22
2022-11-17T05:29:06.588Z,12.20
2022-11-17T05:30:08.962Z,12.17
2022-11-17T05:31:10.795Z,12.22
2022-11-17T05:32:12.514Z,12.28
2022-11-17T05:33:14.036Z,12.30
2022-11-17T05:34:17.390Z,12.38
2022-11-17T05:35:18.920Z,12.39
2022-11-17T05:36:21.350Z,12.39
2022-11-17T05:37:22.912Z,12.33
2022-11-17T05:38:24.488Z,12.31
2022-11-17T05:39:26.007Z,12.38
2022-11-17T05:40:27.600Z,12.38
2022-11-17T05:41:29.499Z,12.37
2022-11-17T05:42:31.047Z,12.40
2022-11-17T05:43:33.464Z,12.46
2022-11-17T05:44:35.245Z,12.44
2022-11-17T05:45:36.847Z,12.42
2022-11-17T05:46:38.359Z,12.39
2022-11-17T05:47:39.871Z,12.41
2022-11-17T05:48:41.489Z,12.38
2022-11-17T05:49:43.086Z,12.39
2022-11-17T05:50:44.647Z,12.39
2022-11-17T05:51:51.308Z,12.44
2022-11-17T05:52:54.178Z,12.55
2022-11-17T05:53:55.702Z,12.58
2022-11-17T05:54:57.230Z,12.63
2022-11-17T05:56:15.048Z,12.66
2022-11-17T05:57:28.530Z,12.65
2022-11-17T05:58:33.562Z,12.62
2022-11-17T05:59:40.998Z,12.59
2022-11-17T06:00:43.267Z,12.59
2022-11-17T06:02:01.832Z,12.67
2022-11-17T06:03:08.250Z,12.67
2022-11-17T06:04:11.021Z,12.70
2022-11-17T06:05:18.707Z,12.78
2022-11-17T06:06:22.467Z,12.80
2022-11-17T06:07:24.531Z,12.79
2022-11-17T06:08:27.108Z,12.87
2022-11-17T06:09:32.734Z,12.88
2022-11-17T06:10:35.147Z,12.91
2022-11-17T06:11:36.678Z,12.91
2022-11-17T06:12:38.223Z,12.88
2022-11-17T06:13:39.825Z,12.79
2022-11-17T06:14:41.366Z,12.77
2022-11-17T06:15:43.025Z,12.73
2022-11-17T06:16:48.863Z,12.66
2022-11-17T06:18:17.000Z,12.55
2022-11-17T06:19:27.442Z,12.53
2022-11-17T06:20:34.632Z,12.54
2022-11-17T06:22:04.602Z,12.63
2022-11-17T06:23:02.728Z,12.61
2022-11-17T06:24:07.211Z,12.55
2022-11-17T06:25:10.436Z,12.51
2022-11-17T06:26:13.099Z,12.47
2022-11-17T06:27:16.733Z,12.47
2022-11-17T06:28:21.158Z,12.50
2022-11-17T06:29:22.770Z,12.53
2022-11-17T06:30:24.334Z,12.48
2022-11-17T06:31:27.874Z,12.49
2022-11-17T06:32:30.076Z,12.53
2022-11-17T06:33:32.431Z,12.52
2022-11-17T06:34:35.033Z,12.60
2022-11-17T06:35:36.792Z,12.63
2022-11-17T06:36:38.350Z,12.71
2022-11-17T06:37:40.018Z,12.76
2022-11-17T06:38:41.575Z,12.80
2022-11-17T06:39:43.107Z,12.80
2022-11-17T06:40:44.678Z,12.79
2022-11-17T06:41:46.183Z,12.79
2022-11-17T06:43:05.951Z,12.84
2022-11-17T06:44:07.534Z,12.89
2022-11-17T06:45:10.423Z,12.92
2022-11-17T06:46:11.948Z,12.95
2022-11-17T06:47:13.527Z,13.00
2022-11-17T06:48:17.271Z,13.08
2022-11-17T06:49:19.078Z,13.14
2022-11-17T06:50:20.687Z,13.20
2022-11-17T06:51:22.216Z,13.30
2022-11-17T06:52:24.915Z,13.35
2022-11-17T06:53:26.764Z,13.31
2022-11-17T06:54:28.852Z,13.26
2022-11-17T06:55:31.093Z,13.24
2022-11-17T06:56:32.696Z,13.24
2022-11-17T06:57:34.258Z,13.23
2022-11-17T06:58:37.952Z,13.23
2022-11-17T06:59:39.642Z,13.20
2022-11-17T07:00:41.226Z,13.23
2022-11-17T07:01:43.461Z,13.29
2022-11-17T07:02:45.018Z,13.17
2022-11-17T07:03:46.570Z,13.08
2022-11-17T07:04:48.097Z,13.11
2022-11-17T07:05:51.906Z,13.18
2022-11-17T07:06:53.476Z,13.23
2022-11-17T07:08:02.313Z,13.28
2022-11-17T07:09:05.135Z,13.33
2022-11-17T07:10:07.282Z,13.38
2022-11-17T07:11:11.186Z,13.41
2022-11-17T07:12:12.758Z,13.36
2022-11-17T07:13:14.753Z,13.29
2022-11-17T07:14:16.289Z,13.19
2022-11-17T07:15:17.946Z,13.05
2022-11-17T07:16:23.442Z,12.89
2022-11-17T07:17:25.698Z,12.70
2022-11-17T07:18:27.301Z,12.52
2022-11-17T07:19:28.882Z,12.33
2022-11-17T07:20:30.479Z,12.22
2022-11-17T07:21:32.972Z,12.16
2022-11-17T07:22:34.572Z,12.12
2022-11-17T07:23:37.542Z,12.08
2022-11-17T07:24:39.159Z,12.08
2022-11-17T07:25:41.347Z,12.07
2022-11-17T07:26:42.898Z,12.00
2022-11-17T07:27:44.459Z,12.01
2022-11-17T07:28:46.025Z,12.01
2022-11-17T07:29:47.616Z,11.99
2022-11-17T07:30:49.438Z,11.98
2022-11-17T07:31:51.007Z,11.96
2022-11-17T07:32:54.851Z,11.98
2022-11-17T07:33:57.073Z,12.02
2022-11-17T07:34:59.812Z,12.01
2022-11-17T07:36:06.743Z,12.06
2022-11-17T07:37:08.322Z,12.17
2022-11-17T07:38:09.993Z,12.22
2022-11-17T07:39:14.951Z,12.31
2022-11-17T07:40:19.073Z,12.33
2022-11-17T07:41:20.815Z,12.37
2022-11-17T07:42:22.358Z,12.53
2022-11-17T07:43:23.919Z,12.60
2022-11-17T07:44:25.457Z,12.72
2022-11-17T07:45:31.815Z,12.76
2022-11-17T07:46:33.765Z,12.70
2022-11-17T07:47:35.379Z,12.69
2022-11-17T07:48:37.361Z,12.66
2022-11-17T07:49:39.113Z,12.61
2022-11-17T07:50:41.685Z,12.63
2022-11-17T07:51:43.220Z,12.63
2022-11-17T07:52:44.822Z,12.67
2022-11-17T07:53:46.598Z,12.66
2022-11-17T07:54:48.137Z,12.65
2022-11-17T07:55:49.782Z,12.62
2022-11-17T07:56:51.364Z,12.55
2022-11-17T07:57:57.595Z,12.49
2022-11-17T07:58:59.165Z,12.41
2022-11-17T08:00:00.738Z,12.31
2022-11-17T08:01:07.242Z,12.34
2022-11-17T08:02:10.023Z,12.24
2022-11-17T08:03:11.714Z,12.20
2022-11-17T08:04:13.345Z,12.20
2022-11-17T08:05:17.379Z,12.21
2022-11-17T08:06:19.506Z,12.23
2022-11-17T08:07:21.100Z,12.18
2022-11-17T08:08:22.689Z,12.10
2022-11-17T08:09:24.370Z,12.04
2022-11-17T08:10:31.292Z,11.99
2022-11-17T08:11:34.251Z,11.87
2022-11-17T08:12:35.911Z,11.92
2022-11-17T08:13:39.548Z,11.94
2022-11-17T08:14:41.119Z,11.92
2022-11-17T08:15:42.700Z,11.87
2022-11-17T08:16:44.257Z,11.87
2022-11-17T08:17:45.902Z,11.85
2022-11-17T08:18:51.983Z,11.83
2022-11-17T08:19:54.318Z,11.81
2022-11-17T08:21:07.271Z,11.78
2022-11-17T08:22:09.403Z,11.80
2022-11-17T08:23:10.953Z,11.74
2022-11-17T08:24:12.704Z,11.70
2022-11-17T08:25:14.313Z,11.68
2022-11-17T08:26:15.874Z,11.70
2022-11-17T08:27:17.554Z,11.72
2022-11-17T08:28:19.109Z,11.76
2022-11-17T08:29:20.720Z,11.83
2022-11-17T08:30:22.845Z,11.85
2022-11-17T08:31:24.517Z,11.89
2022-11-17T08:32:26.209Z,11.93
2022-11-17T08:33:28.236Z,11.98
2022-11-17T08:34:29.789Z,12.03
2022-11-17T08:35:37.428Z,12.12
2022-11-17T08:36:40.145Z,12.24
2022-11-17T08:37:41.733Z,12.34
2022-11-17T08:38:43.742Z,12.47
2022-11-17T08:39:45.314Z,12.54
2022-11-17T08:40:47.729Z,12.58
2022-11-17T08:41:51.432Z,12.62
2022-11-17T08:43:00.380Z,12.67
2022-11-17T08:44:02.823Z,12.73
2022-11-17T08:45:05.921Z,12.77
2022-11-17T08:46:11.873Z,12.81
2022-11-17T08:47:13.494Z,12.85
2022-11-17T08:48:15.086Z,12.89
2022-11-17T08:49:16.721Z,12.80
2022-11-17T08:50:18.388Z,12.65
2022-11-17T08:51:19.951Z,12.68
2022-11-17T08:52:22.625Z,12.71
2022-11-17T08:53:24.302Z,12.77
2022-11-17T08:54:25.981Z,12.81
2022-11-17T08:55:27.788Z,12.83
2022-11-17T08:56:29.510Z,12.95
2022-11-17T08:57:32.565Z,12.95
2022-11-17T08:58:41.811Z,12.99
2022-11-17T08:59:43.373Z,13.02
2022-11-17T09:00:47.351Z,13.06
2022-11-17T09:01:49.181Z,13.02
2022-11-17T09:02:50.727Z,12.89
2022-11-17T09:03:52.406Z,12.78
2022-11-17T09:04:54.079Z,12.78
2022-11-17T09:05:56.718Z,12.77
2022-11-17T09:06:58.380Z,12.76
2022-11-17T09:08:16.399Z,12.70
2022-11-17T09:09:21.579Z,12.73
2022-11-17T09:10:23.437Z,12.75
2022-11-17T09:11:25.207Z,12.77
2022-11-17T09:12:26.936Z,12.79
2022-11-17T09:13:28.458Z,12.76
2022-11-17T09:14:31.572Z,12.81
2022-11-17T09:15:33.911Z,12.87
2022-11-17T09:16:36.523Z,12.96
2022-11-17T09:17:38.224Z,13.03
2022-11-17T09:18:41.371Z,13.08
2022-11-17T09:19:43.124Z,13.13
2022-11-17T09:20:45.990Z,13.10
2022-11-17T09:21:47.706Z,12.91
2022-11-17T09:22:49.316Z,12.67
2022-11-17T09:23:50.871Z,12.65
2022-11-17T09:24:52.420Z,12.66
2022-11-17T09:25:54.049Z,12.65
2022-11-17T09:26:57.496Z,12.58
2022-11-17T09:27:59.181Z,12.60
2022-11-17T09:29:04.229Z,12.48
2022-11-17T09:30:07.846Z,12.44
2022-11-17T09:31:14.740Z,12.39
2022-11-17T09:32:16.984Z,12.24
2022-11-17T09:33:19.445Z,12.19
2022-11-17T09:34:21.191Z,12.17
2022-11-17T09:35:22.898Z,12.20
2022-11-17T09:36:25.887Z,12.23
2022-11-17T09:37:28.225Z,12.28
2022-11-17T09:38:30.309Z,12.32
2022-11-17T09:39:31.862Z,12.42
2022-11-17T09:40:37.808Z,12.48
2022-11-17T09:41:45.710Z,12.41
2022-11-17T09:42:47.503Z,12.38
2022-11-17T09:44:24.472Z,12.24
2022-11-17T09:45:34.169Z,12.21
2022-11-17T09:46:53.816Z,12.17
2022-11-17T09:48:40.143Z,12.20
2022-11-17T09:49:56.997Z,12.28
2022-11-17T09:51:02.869Z,12.36
2022-11-17T09:52:44.247Z,12.51
2022-11-17T09:54:03.561Z,12.52
2022-11-17T09:55:13.999Z,12.53
2022-11-17T09:56:16.358Z,12.60
2022-11-17T09:57:22.984Z,12.67
2022-11-17T09:58:44.597Z,12.71
2022-11-17T09:59:52.039Z,12.76
2022-11-17T10:00:54.440Z,12.77
2022-11-17T10:01:56.074Z,12.83
2022-11-17T10:02:57.794Z,12.84
2022-11-17T10:04:01.341Z,12.89
2022-11-17T10:05:03.056Z,12.87
2022-11-17T10:06:08.037Z,12.79
2022-11-17T10:07:09.869Z,12.74
2022-11-17T10:08:16.566Z,12.75
2022-11-17T10:09:29.392Z,12.71
2022-11-17T10:10:47.789Z,12.77
2022-11-17T10:11:49.536Z,12.85
2022-11-17T10:12:57.346Z,12.90
2022-11-17T10:14:09.988Z,12.82
2022-11-17T10:15:42.327Z,12.85
2022-11-17T10:16:50.979Z,12.83
2022-11-17T10:17:52.556Z,12.82
2022-11-17T10:18:54.099Z,12.72
2022-11-17T10:19:55.680Z,12.55
2022-11-17T10:20:57.234Z,12.53
2022-11-17T10:22:01.610Z,12.52
2022-11-17T10:23:04.240Z,12.56
2022-11-17T10:24:06.039Z,12.60
2022-11-17T10:25:22.225Z,12.58
2022-11-17T10:26:24.014Z,12.65
2022-11-17T10:27:27.411Z,12.69
2022-11-17T10:28:31.578Z,12.70
2022-11-17T10:29:33.490Z,12.69
2022-11-17T10:30:35.424Z,12.66
2022-11-17T10:31:46.379Z,12.56
2022-11-17T10:32:56.654Z,12.48
2022-11-17T10:33:58.263Z,12.44
2022-11-17T10:35:19.906Z,12.41
2022-11-17T10:36:27.315Z,12.44
2022-11-17T10:37:30.714Z,12.46
2022-11-17T10:38:33.858Z,12.50
2022-11-17T10:39:40.369Z,12.47
2022-11-17T10:40:42.076Z,12.51
2022-11-17T10:41:50.397Z,12.54
2022-11-17T10:43:01.651Z,12.61
2022-11-17T10:44:24.783Z,12.62
2022-11-17T10:45:26.579Z,12.62
2022-11-17T10:46:33.433Z,12.61
2022-11-17T10:47:43.392Z,12.59
2022-11-17T10:48:57.054Z,12.56
2022-11-17T10:50:21.562Z,12.61
2022-11-17T10:51:26.462Z,12.62
2022-11-17T10:52:28.025Z,12.60
2022-11-17T10:53:43.470Z,12.63
2022-11-17T10:54:49.940Z,12.70
2022-11-17T10:56:01.374Z,12.74
2022-11-17T10:57:07.625Z,12.78
2022-11-17T10:58:24.457Z,12.85
2022-11-17T10:59:56.738Z,12.95
2022-11-17T11:01:04.094Z,13.04
2022-11-17T11:02:38.289Z,13.17
2022-11-17T11:03:50.272Z,13.29
2022-11-17T11:05:15.982Z,13.37
2022-11-17T11:06:20.231Z,13.41
2022-11-17T11:07:23.473Z,13.44
2022-11-17T11:08:56.800Z,13.46
2022-11-17T11:10:19.681Z,13.57
2022-11-17T11:11:34.873Z,13.66
2022-11-17T11:13:02.652Z,13.71
2022-11-17T11:14:13.637Z,13.79
2022-11-17T11:15:20.547Z,13.85
2022-11-17T11:16:24.732Z,13.90
2022-11-17T11:17:28.557Z,13.94
2022-11-17T11:18:31.972Z,13.99
2022-11-17T11:19:34.231Z,14.00
2022-11-17T11:20:45.787Z,13.96
2022-11-17T11:22:08.798Z,14.01
2022-11-17T11:23:34.758Z,14.09
2022-11-17T11:24:55.600Z,14.12
2022-11-17T11:26:15.821Z,14.14
2022-11-17T11:27:26.747Z,14.11
2022-11-17T11:28:54.993Z,14.14
2022-11-17T11:30:06.508Z,14.19
2022-11-17T11:31:29.185Z,14.24
2022-11-17T11:32:50.702Z,14.21
2022-11-17T11:34:15.457Z,14.21
2022-11-17T11:35:47.695Z,14.21
2022-11-17T11:37:18.551Z,14.19
2022-11-17T11:38:51.392Z,14.15
2022-11-17T11:40:23.152Z,14.22
2022-11-17T11:41:30.361Z,14.29
2022-11-17T11:42:35.906Z,14.34
2022-11-17T11:43:54.863Z,14.39
2022-11-17T11:45:08.587Z,14.43
2022-11-17T11:46:13.210Z,14.49
2022-11-17T11:47:52.018Z,14.50
2022-11-17T11:48:57.785Z,14.60
2022-11-17T11:50:10.057Z,14.65
2022-11-17T11:51:16.315Z,14.72
2022-11-17T11:52:24.467Z,14.74
2022-11-17T11:53:35.391Z,14.75
2022-11-17T11:54:49.388Z,14.87
2022-11-17T11:56:09.622Z,14.92
2022-11-17T11:57:15.837Z,14.97
2022-11-17T11:58:24.182Z,15.00
2022-11-17T11:59:41.753Z,14.95
2022-11-17T12:00:44.837Z,14.89
2022-11-17T12:01:55.979Z,14.80
2022-11-17T12:03:24.325Z,14.69
2022-11-17T12:04:53.987Z,14.60
2022-11-17T12:05:58.194Z,14.51
2022-11-17T12:07:11.922Z,14.58
2022-11-17T12:08:27.229Z,14.62
2022-11-17T12:09:34.885Z,14.68
2022-11-17T12:11:28.881Z,14.73
2022-11-17T12:12:34.005Z,14.79
2022-11-17T12:13:46.148Z,14.82
2022-11-17T12:15:13.083Z,14.90
2022-11-17T12:16:19.944Z,14.92
2022-11-17T12:17:26.300Z,14.94
2022-11-17T12:18:27.962Z,14.89
2022-11-17T12:19:44.891Z,14.76
2022-11-17T12:20:52.379Z,14.73
2022-11-17T12:21:56.109Z,14.73
2022-11-17T12:23:17.844Z,14.76
2022-11-17T12:24:33.502Z,14.78
2022-11-17T12:25:45.195Z,14.78
2022-11-17T12:26:48.379Z,14.83
2022-11-17T12:27:52.663Z,14.83
2022-11-17T12:29:24.521Z,14.78
2022-11-17T12:30:35.374Z,14.77
2022-11-17T12:31:44.642Z,14.86
2022-11-17T12:32:49.189Z,14.94
2022-11-17T12:33:53.721Z,14.99
2022-11-17T12:35:24.396Z,15.10
2022-11-17T12:36:34.317Z,15.13
2022-11-17T12:37:36.442Z,15.13
2022-11-17T12:38:39.584Z,15.23
2022-11-17T12:40:04.189Z,15.24
2022-11-17T12:41:06.427Z,15.24
2022-11-17T12:42:08.065Z,15.29
2022-11-17T12:43:15.535Z,15.35
2022-11-17T12:44:43.937Z,15.40
2022-11-17T12:46:07.339Z,15.43
2022-11-17T12:47:11.005Z,15.44
2022-11-17T12:48:32.909Z,15.41
2022-11-17T12:49:52.947Z,15.50
2022-11-17T12:51:04.593Z,15.54
2022-11-17T12:52:17.284Z,15.60
2022-11-17T12:54:06.769Z,15.60
2022-11-17T12:55:32.747Z,15.60
2022-11-17T12:57:00.422Z,15.64
2022-11-17T12:58:21.567Z,15.66
2022-11-17T12:59:46.618Z,15.69
2022-11-17T13:01:16.218Z,15.66
2022-11-17T13:02:42.395Z,15.64
2022-11-17T13:03:46.896Z,15.57
2022-11-17T13:04:58.680Z,15.57
2022-11-17T13:06:35.078Z,15.61
2022-11-17T13:07:37.893Z,15.56
2022-11-17T13:08:39.554Z,15.53
2022-11-17T13:09:41.162Z,15.50
2022-11-17T13:10:42.774Z,15.47
2022-11-17T13:11:59.468Z,15.47
2022-11-17T13:13:13.015Z,15.50
2022-11-17T13:14:17.090Z,15.50
2022-11-17T13:15:23.747Z,15.53
2022-11-17T13:16:25.306Z,15.53
2022-11-17T13:17:32.335Z,15.55
2022-11-17T13:18:38.583Z,15.59
2022-11-17T13:19:41.712Z,15.61
2022-11-17T13:20:47.461Z,15.65
2022-11-17T13:21:49.021Z,15.65
2022-11-17T13:23:24.124Z,15.64
2022-11-17T13:24:31.800Z,15.63
2022-11-17T13:25:34.573Z,15.66
2022-11-17T13:26:38.243Z,15.68
2022-11-17T13:27:49.177Z,15.71
2022-11-17T13:29:10.005Z,15.72
2022-11-17T13:30:12.967Z,15.74
2022-11-17T13:31:25.767Z,15.75
2022-11-17T13:32:28.681Z,15.67
2022-11-17T13:33:33.327Z,15.60
2022-11-17T13:34:56.754Z,15.50
2022-11-17T13:36:27.242Z,15.38
2022-11-17T13:37:30.256Z,15.35
2022-11-17T13:38:31.889Z,15.34
2022-11-17T13:39:33.500Z,15.31
2022-11-17T13:40:37.190Z,15.18
2022-11-17T13:41:39.779Z,15.09
2022-11-17T13:42:41.742Z,15.04
2022-11-17T13:43:45.997Z,15.02
2022-11-17T13:44:48.364Z,14.99
2022-11-17T13:45:51.135Z,14.96
2022-11-17T13:46:52.837Z,14.98
2022-11-17T13:47:54.904Z,14.94
2022-11-17T13:48:57.703Z,14.90
2022-11-17T13:50:21.727Z,14.83
2022-11-17T13:51:33.087Z,14.81
2022-11-17T13:52:43.646Z,14.83
2022-11-17T13:53:55.365Z,14.82
2022-11-17T13:54:57.137Z,14.78
2022-11-17T13:55:58.858Z,14.76
2022-11-17T13:57:07.967Z,14.74
2022-11-17T13:58:26.691Z,14.73
2022-11-17T13:59:32.151Z,14.71
2022-11-17T14:00:34.404Z,14.72
2022-11-17T14:01:36.112Z,14.72
2022-11-17T14:02:54.799Z,14.68
2022-11-17T14:04:19.515Z,14.61
2022-11-17T14:06:14.574Z,14.54
2022-11-17T14:07:30.244Z,14.51
2022-11-17T14:08:34.023Z,14.52
2022-11-17T14:09:35.749Z,14.57
2022-11-17T14:10:38.920Z,14.59
2022-11-17T14:11:42.029Z,14.61
2022-11-17T14:12:43.762Z,14.62
2022-11-17T14:13:51.200Z,14.59
2022-11-17T14:14:52.729Z,14.55
2022-11-17T14:15:59.811Z,14.52
2022-11-17T14:17:19.927Z,14.55
2022-11-17T14:18:27.961Z,14.57
2022-11-17T14:19:33.723Z,14.56
2022-11-17T14:20:36.471Z,14.54
2022-11-17T14:21:59.409Z,14.51
2022-11-17T14:23:13.651Z,14.46
2022-11-17T14:24:15.383Z,14.40
2022-11-17T14:25:17.203Z,14.41
2022-11-17T14:26:23.490Z,14.41
2022-11-17T14:27:27.851Z,14.40
2022-11-17T14:28:29.456Z,14.39